Time;durP1;ratioP1;P1;durP2;ratioP2;P2;SDS_P1;SDS_P2;PMS_P1;PMS_P2;Temp;Humidity;BMP_temperature;BMP_pressure;BME280_temperature;BME280_humidity;BME280_pressure;Samples;Min_cycle;Max_cycle;Signal;HPM_P1;HPM_P2
2021/09/20 00:01:55;;;;;;;5.05;2.80;;;;;;;14.14;100.00;94837.44;5081070;28;20045;-73
2021/09/20 00:04:23;;;;;;;5.18;3.28;;;;;;;14.17;100.00;94829.09;5079716;28;20043;-73
2021/09/20 00:06:50;;;;;;;4.03;2.92;;;;;;;14.23;99.34;94841.16;5072126;28;20667;-73
2021/09/20 00:09:16;;;;;;;5.35;2.90;;;;;;;14.30;98.11;94854.06;5084589;28;20043;-73
2021/09/20 00:11:43;;;;;;;5.38;2.85;;;;;;;14.18;97.56;94832.50;5077077;28;20059;-72
2021/09/20 00:14:10;;;;;;;4.82;2.70;;;;;;;14.12;97.65;94826.44;5080385;28;20047;-72
2021/09/20 00:16:37;;;;;;;4.03;2.90;;;;;;;14.17;97.14;94836.97;5082294;28;20044;-72
2021/09/20 00:19:04;;;;;;;6.15;2.25;;;;;;;14.10;96.75;94825.91;5071865;28;20036;-72
2021/09/20 00:21:30;;;;;;;4.45;2.35;;;;;;;14.05;96.85;94834.50;5076888;28;20133;-72
2021/09/20 00:23:57;;;;;;;5.05;2.90;;;;;;;13.99;96.77;94839.97;5072025;28;20040;-73
2021/09/20 00:26:24;;;;;;;4.25;2.50;;;;;;;13.90;97.40;94835.22;5083522;28;20101;-73
2021/09/20 00:28:51;;;;;;;3.38;2.22;;;;;;;13.86;97.30;94831.50;5083134;28;20044;-73
2021/09/20 00:31:18;;;;;;;4.25;3.10;;;;;;;13.87;96.90;94822.59;5080405;28;20043;-73
2021/09/20 00:33:45;;;;;;;5.68;2.75;;;;;;;13.89;97.04;94825.75;5074988;28;20046;-73
2021/09/20 00:36:11;;;;;;;3.85;2.13;;;;;;;13.81;96.86;94805.31;5074406;28;20429;-74
2021/09/20 00:38:38;;;;;;;8.43;3.78;;;;;;;13.86;97.25;94821.03;5071152;28;20032;-73
2021/09/20 00:41:05;;;;;;;4.75;2.47;;;;;;;13.80;97.44;94814.19;5074580;28;20052;-73
2021/09/20 00:43:32;;;;;;;4.50;2.85;;;;;;;13.88;97.43;94818.97;5084331;28;20044;-73
2021/09/20 00:45:59;;;;;;;3.92;2.13;;;;;;;13.86;96.82;94815.00;5078898;28;20391;-73
2021/09/20 00:48:26;;;;;;;4.93;2.88;;;;;;;13.88;96.49;94816.34;5074443;28;20507;-73
2021/09/20 00:50:52;;;;;;;5.13;2.65;;;;;;;13.80;96.96;94801.09;5076217;28;20044;-73
2021/09/20 00:53:19;;;;;;;3.80;1.85;;;;;;;13.77;97.28;94807.63;5077703;28;20059;-73
2021/09/20 00:55:46;;;;;;;5.45;2.28;;;;;;;13.85;96.84;94808.97;5078179;28;20509;-73
2021/09/20 00:58:13;;;;;;;5.80;2.70;;;;;;;13.80;96.99;94816.81;5077495;28;20040;-73
2021/09/20 01:00:40;;;;;;;3.83;2.25;;;;;;;13.72;96.47;94806.78;5072499;28;20029;-73
2021/09/20 01:03:08;;;;;;;5.63;2.28;;;;;;;13.73;96.49;94795.28;5078732;28;20063;-73
2021/09/20 01:05:35;;;;;;;3.70;2.00;;;;;;;13.69;96.01;94810.69;5073585;28;20437;-73
2021/09/20 01:08:02;;;;;;;9.48;2.47;;;;;;;13.55;95.64;94799.84;5080225;28;20047;-73
2021/09/20 01:10:29;;;;;;;5.88;2.30;;;;;;;13.50;95.94;94805.03;5078549;28;20040;-73
2021/09/20 01:12:56;;;;;;;4.40;2.47;;;;;;;13.40;96.82;94820.69;5072526;28;20040;-73
2021/09/20 01:15:23;;;;;;;8.23;2.83;;;;;;;13.34;97.47;94819.03;5075871;28;20056;-73
2021/09/20 01:17:50;;;;;;;3.85;2.38;;;;;;;13.33;97.26;94827.94;5082935;28;20039;-73
2021/09/20 01:20:17;;;;;;;5.15;3.28;;;;;;;13.24;97.34;94818.94;5074521;28;20047;-73
2021/09/20 01:22:52;;;;;;;4.97;2.80;;;;;;;13.17;97.52;94814.69;5069212;28;20114;-72
2021/09/20 01:25:19;;;;;;;4.05;2.58;;;;;;;13.17;97.44;94819.13;5075106;28;20036;-73
2021/09/20 01:27:46;;;;;;;3.58;2.30;;;;;;;13.09;97.52;94817.75;5077522;28;20421;-72
2021/09/20 01:30:13;;;;;;;7.88;2.63;;;;;;;13.18;97.41;94831.94;5078996;28;20048;-72
2021/09/20 01:32:40;;;;;;;4.53;2.40;;;;;;;13.26;96.80;94829.94;5079535;28;20439;-73
2021/09/20 01:35:07;;;;;;;3.33;2.63;;;;;;;13.34;97.21;94827.69;5074346;28;20157;-72
2021/09/20 01:37:34;;;;;;;5.53;2.65;;;;;;;13.46;96.98;94822.28;5077220;28;20045;-73
2021/09/20 01:40:02;;;;;;;5.65;3.78;;;;;;;12.71;100.00;94813.41;5078648;28;20109;-72
2021/09/20 01:42:29;;;;;;;4.32;2.58;;;;;;;12.90;100.00;94829.56;5073428;28;20064;-74
2021/09/20 01:44:56;;;;;;;6.00;2.38;;;;;;;12.96;100.00;94828.56;5071751;28;20046;-73
2021/09/20 01:47:23;;;;;;;4.20;2.75;;;;;;;13.12;99.93;94827.69;5072565;28;20040;-73
2021/09/20 01:49:49;;;;;;;10.93;2.60;;;;;;;13.15;98.74;94805.50;5071073;28;20109;-73
2021/09/20 01:52:16;;;;;;;4.78;2.55;;;;;;;13.25;97.74;94815.25;5074375;28;20043;-73
2021/09/20 01:54:43;;;;;;;5.55;2.83;;;;;;;13.24;96.66;94816.31;5075145;28;20036;-73
2021/09/20 01:57:11;;;;;;;4.60;3.00;;;;;;;13.19;95.48;94802.13;5080668;28;20039;-73
2021/09/20 01:59:38;;;;;;;5.32;2.20;;;;;;;13.20;95.18;94801.13;5074489;28;20040;-73
2021/09/20 02:02:05;;;;;;;7.10;2.33;;;;;;;13.17;94.44;94804.22;5075796;28;20438;-73
2021/09/20 02:04:32;;;;;;;4.03;2.53;;;;;;;13.11;95.42;94799.97;5073008;28;20047;-73
2021/09/20 02:06:59;;;;;;;9.27;2.88;;;;;;;13.10;96.56;94798.41;5072833;28;20045;-73
2021/09/20 02:09:26;;;;;;;3.53;2.50;;;;;;;13.10;96.82;94806.25;5074163;28;20044;-73
2021/09/20 02:11:52;;;;;;;4.25;2.25;;;;;;;13.06;96.39;94805.16;5075147;28;20044;-73
2021/09/20 02:14:19;;;;;;;4.65;3.17;;;;;;;12.61;100.00;94791.34;5076167;28;20069;-72
2021/09/20 02:16:46;;;;;;;3.67;2.50;;;;;;;12.16;100.00;94794.22;5073197;28;20064;-73
2021/09/20 02:19:13;;;;;;;4.72;2.83;;;;;;;12.25;100.00;94792.75;5078136;28;20048;-73
2021/09/20 02:21:40;;;;;;;4.40;2.70;;;;;;;12.47;100.00;94799.81;5075775;28;20044;-73
2021/09/20 02:24:07;;;;;;;4.55;2.50;;;;;;;12.56;100.00;94793.91;5078566;28;20036;-73
2021/09/20 02:26:33;;;;;;;7.65;3.33;;;;;;;12.56;100.00;94778.22;5078122;28;20040;-72
2021/09/20 02:29:00;;;;;;;4.63;2.60;;;;;;;12.63;100.00;94778.06;5073628;28;20044;-73
2021/09/20 02:31:27;;;;;;;6.00;3.50;;;;;;;12.67;100.00;94763.47;5077877;28;20029;-72
2021/09/20 02:33:54;;;;;;;5.35;2.95;;;;;;;12.74;99.36;94768.50;5074250;28;20047;-72
2021/09/20 02:36:21;;;;;;;5.43;3.10;;;;;;;12.51;100.00;94754.66;5065779;28;20102;-73
2021/09/20 02:38:48;;;;;;;5.13;3.10;;;;;;;12.53;100.00;94751.81;5068789;28;20055;-72
2021/09/20 02:41:15;;;;;;;6.18;3.00;;;;;;;12.58;100.00;94751.88;5078591;28;20036;-72
2021/09/20 02:43:42;;;;;;;4.00;2.65;;;;;;;12.63;99.99;94757.16;5072631;28;20050;-72
2021/09/20 02:46:10;;;;;;;3.05;2.33;;;;;;;12.60;99.88;94740.16;5073494;28;20121;-72
2021/09/20 02:48:37;;;;;;;5.85;3.47;;;;;;;12.65;99.70;94734.16;5067727;28;20115;-72
2021/09/20 02:51:04;;;;;;;6.82;2.78;;;;;;;12.55;100.00;94745.31;5077536;28;20106;-73
2021/09/20 02:53:31;;;;;;;4.70;3.60;;;;;;;12.59;100.00;94740.41;5068297;28;20052;-73
2021/09/20 02:55:58;;;;;;;7.20;3.58;;;;;;;12.73;100.00;94752.03;5076755;28;20059;-73
2021/09/20 02:58:25;;;;;;;5.20;3.22;;;;;;;12.66;100.00;94746.22;5080843;28;20041;-73
2021/09/20 03:00:52;;;;;;;5.65;3.25;;;;;;;12.75;100.00;94755.19;5078188;28;20032;-73
2021/09/20 03:03:19;;;;;;;4.78;3.42;;;;;;;12.74;100.00;94753.59;5070942;28;20071;-73
2021/09/20 03:05:46;;;;;;;4.43;3.08;;;;;;;12.79;100.00;94756.28;5075744;28;20048;-73
2021/09/20 03:08:13;;;;;;;5.28;2.88;;;;;;;12.73;100.00;94752.03;5073961;28;20123;-73
2021/09/20 03:10:40;;;;;;;5.57;2.75;;;;;;;12.75;100.00;94755.19;5080931;28;20055;-73
2021/09/20 03:13:06;;;;;;;6.50;3.05;;;;;;;12.71;100.00;94743.66;5074788;28;20059;-72
2021/09/20 03:15:33;;;;;;;5.47;3.33;;;;;;;12.65;100.00;94736.78;5074387;28;20055;-73
2021/09/20 03:18:00;;;;;;;6.18;4.07;;;;;;;12.86;100.00;94765.75;5073488;28;20035;-73
2021/09/20 03:20:27;;;;;;;10.48;6.22;;;;;;;12.86;100.00;94765.75;5077592;28;20036;-73
2021/09/20 03:22:54;;;;;;;8.80;6.00;;;;;;;12.73;100.00;94766.91;5075425;28;20059;-73
2021/09/20 03:25:22;;;;;;;9.73;5.47;;;;;;;12.59;100.00;94756.06;5082639;28;20063;-73
2021/09/20 03:27:48;;;;;;;7.90;5.32;;;;;;;12.62;100.00;94766.81;5077415;28;20033;-73
2021/09/20 03:30:16;;;;;;;8.00;4.68;;;;;;;12.55;100.00;94768.03;5076086;28;20040;-73
2021/09/20 03:32:44;;;;;;;8.02;5.05;;;;;;;12.63;100.00;94778.06;5077766;28;20040;-73
2021/09/20 03:35:14;;;;;;;6.45;4.63;;;;;;;12.62;100.00;94776.47;5077444;28;20048;-74
2021/09/20 03:37:46;;;;;;;6.90;4.32;;;;;;;12.53;100.00;94762.25;5075231;28;20033;-74
2021/09/20 03:40:15;;;;;;;6.25;4.20;;;;;;;12.50;100.00;94768.00;5080459;28;20418;-74
2021/09/20 03:42:42;;;;;;;8.80;4.93;;;;;;;12.45;100.00;94775.75;5077790;28;20044;-74
2021/09/20 03:45:11;;;;;;;5.57;3.67;;;;;;;12.40;100.00;94774.66;5075891;28;20040;-74
2021/09/20 03:47:38;;;;;;;6.35;3.00;;;;;;;12.43;100.00;94774.16;5077682;28;20600;-74
2021/09/20 03:50:08;;;;;;;4.53;2.88;;;;;;;12.31;100.00;94765.66;5075646;28;20060;-73
2021/09/20 03:52:34;;;;;;;6.90;2.88;;;;;;;12.37;100.00;94790.81;5074187;28;20048;-73
2021/09/20 03:55:02;;;;;;;8.43;3.13;;;;;;;12.34;100.00;94769.63;5075603;28;20097;-73
2021/09/20 03:57:29;;;;;;;5.28;3.33;;;;;;;12.25;100.00;94777.09;5076359;28;20040;-73
2021/09/20 03:59:55;;;;;;;5.10;3.33;;;;;;;12.31;100.00;94785.78;5075543;28;20040;-73
2021/09/20 04:02:22;;;;;;;5.30;3.03;;;;;;;12.25;100.00;94761.41;5080824;28;20043;-73
2021/09/20 04:04:49;;;;;;;5.78;3.15;;;;;;;12.28;100.00;94776.59;5071226;28;20098;-72
2021/09/20 04:07:16;;;;;;;6.45;4.88;;;;;;;12.34;100.00;94775.63;5072561;28;20059;-72
2021/09/20 04:09:43;;;;;;;5.05;3.60;;;;;;;12.25;100.00;94779.69;5080671;28;20520;-72
2021/09/20 04:12:10;;;;;;;5.43;3.67;;;;;;;12.10;100.00;94764.63;5076844;28;20036;-72
2021/09/20 04:14:38;;;;;;;11.48;5.82;;;;;;;12.22;100.00;94782.78;5076308;28;20044;-72
2021/09/20 04:17:06;;;;;;;25.38;5.78;;;;;;;12.13;100.00;94781.63;5075449;28;20063;-73
2021/09/20 04:19:34;;;;;;;9.65;5.78;;;;;;;12.16;100.00;94794.22;5076419;28;20044;-72
2021/09/20 04:22:02;;;;;;;10.18;5.15;;;;;;;12.19;100.00;94788.47;5076577;28;20556;-71
2021/09/20 04:24:29;;;;;;;10.48;5.43;;;;;;;12.27;100.00;94795.91;5073958;28;20464;-73
2021/09/20 04:26:56;;;;;;;12.48;5.97;;;;;;;12.25;100.00;94777.09;5082383;28;20044;-72
2021/09/20 04:29:23;;;;;;;12.98;5.55;;;;;;;12.30;100.00;94771.94;5077609;28;20048;-73
2021/09/20 04:31:50;;;;;;;8.70;4.00;;;;;;;12.36;100.00;94773.56;5075156;28;20036;-72
2021/09/20 04:34:17;;;;;;;5.82;3.17;;;;;;;12.35;100.00;94785.06;5079996;28;20129;-73
2021/09/20 04:36:44;;;;;;;5.68;3.65;;;;;;;12.33;100.00;94789.72;5075218;28;20072;-74
2021/09/20 04:39:10;;;;;;;6.75;3.75;;;;;;;12.38;100.00;94787.16;5075552;28;20044;-74
2021/09/20 04:41:40;;;;;;;5.38;3.55;;;;;;;12.34;100.00;94785.28;5073848;28;20180;-74
2021/09/20 04:44:07;;;;;;;4.05;2.88;;;;;;;12.34;100.00;94786.06;5077677;28;20060;-74
2021/09/20 04:46:34;;;;;;;5.85;3.25;;;;;;;12.30;100.00;94763.28;5074868;28;20040;-73
2021/09/20 04:49:01;;;;;;;4.93;3.40;;;;;;;12.31;100.00;94765.66;5082570;28;20113;-73
2021/09/20 04:51:28;;;;;;;5.22;3.15;;;;;;;12.38;100.00;94771.50;5074493;28;20063;-73
2021/09/20 04:53:55;;;;;;;7.97;3.80;;;;;;;12.24;100.00;94776.31;5077530;28;20055;-73
2021/09/20 04:56:22;;;;;;;9.07;4.55;;;;;;;12.46;100.00;94772.91;5083124;28;20052;-73
2021/09/20 04:58:49;;;;;;;6.93;3.80;;;;;;;12.54;100.00;94769.06;5081852;28;20493;-73
2021/09/20 05:01:16;;;;;;;8.50;5.32;;;;;;;12.69;100.00;94786.72;5071185;28;20048;-73
2021/09/20 05:03:43;;;;;;;11.93;4.80;;;;;;;12.65;100.00;94773.38;5074138;28;20102;-73
2021/09/20 05:06:10;;;;;;;10.27;4.15;;;;;;;12.72;100.00;94771.34;5076616;28;20094;-73
2021/09/20 05:08:37;;;;;;;7.03;4.07;;;;;;;12.79;100.00;94782.41;5082715;28;20043;-72
2021/09/20 05:11:04;;;;;;;6.95;4.03;;;;;;;12.75;100.00;94789.16;5081698;28;20048;-73
2021/09/20 05:13:30;;;;;;;12.73;5.05;;;;;;;12.85;100.00;94806.75;5077828;28;20040;-73
2021/09/20 05:15:57;;;;;;;10.27;5.45;;;;;;;12.90;100.00;94803.44;5082311;28;20492;-73
2021/09/20 05:18:24;;;;;;;11.05;5.82;;;;;;;12.88;100.00;94797.66;5072973;28;20040;-73
2021/09/20 05:20:51;;;;;;;10.50;4.78;;;;;;;12.89;100.00;94786.16;5069771;28;20040;-73
2021/09/20 05:23:18;;;;;;;8.80;4.32;;;;;;;12.99;100.00;94807.19;5079201;28;20122;-73
2021/09/20 05:25:44;;;;;;;8.77;4.60;;;;;;;12.90;100.00;94804.22;5072663;28;20040;-72
2021/09/20 05:28:11;;;;;;;8.23;4.38;;;;;;;12.99;100.00;94796.72;5078604;28;20089;-71
2021/09/20 05:30:38;;;;;;;7.93;4.93;;;;;;;13.00;100.00;94804.31;5077167;28;20040;-71
2021/09/20 05:33:05;;;;;;;10.48;5.25;;;;;;;13.04;100.00;94820.31;5081873;28;20101;-71
2021/09/20 05:35:32;;;;;;;9.43;5.38;;;;;;;12.94;100.00;94820.19;5070439;28;20044;-71
2021/09/20 05:37:59;;;;;;;9.15;3.88;;;;;;;13.00;100.00;94834.91;5072128;28;20051;-71
2021/09/20 05:40:25;;;;;;;7.05;3.47;;;;;;;12.90;100.00;94832.19;5067218;28;20094;-72
2021/09/20 05:43:01;;;;;;;7.30;3.63;;;;;;;12.91;100.00;94831.13;5070845;28;20040;-71
2021/09/20 05:45:28;;;;;;;9.25;4.63;;;;;;;12.95;100.00;94822.56;5075739;28;20525;-73
2021/09/20 05:47:55;;;;;;;9.50;4.55;;;;;;;13.02;100.00;94822.38;5075479;28;20563;-76
2021/09/20 05:50:22;;;;;;;10.90;5.10;;;;;;;13.22;100.00;94836.66;5078316;28;20098;-75
2021/09/20 05:52:49;;;;;;;9.93;3.95;;;;;;;13.10;100.00;94808.84;5078359;28;20032;-76
2021/09/20 05:55:15;;;;;;;9.07;5.45;;;;;;;13.26;100.00;94811.63;5076466;28;20048;-73
2021/09/20 05:57:43;;;;;;;8.82;5.07;;;;;;;13.34;100.00;94808.56;5067673;28;20044;-74
2021/09/20 06:00:10;;;;;;;11.38;6.22;;;;;;;13.39;100.00;94803.38;5084693;28;20044;-74
2021/09/20 06:02:38;;;;;;;11.13;5.63;;;;;;;13.47;100.00;94812.59;5076474;28;20070;-74
2021/09/20 06:05:08;;;;;;;8.40;5.13;;;;;;;13.52;100.00;94810.03;5066139;28;20051;-74
2021/09/20 06:07:34;;;;;;;7.55;4.55;;;;;;;13.45;100.00;94799.78;5071664;28;20053;-74
2021/09/20 06:10:02;;;;;;;8.68;4.18;;;;;;;13.61;100.00;94812.97;5071385;28;20098;-74
2021/09/20 06:12:29;;;;;;;9.35;5.40;;;;;;;13.60;100.00;94798.34;5069550;28;20036;-73
2021/09/20 06:14:55;;;;;;;9.05;5.10;;;;;;;13.67;100.00;94801.53;5070558;28;20036;-74
2021/09/20 06:17:23;;;;;;;8.85;5.18;;;;;;;13.82;100.00;94799.00;5076545;28;20121;-73
2021/09/20 06:19:50;;;;;;;12.77;5.82;;;;;;;13.93;100.00;94797.25;5075399;28;20043;-73
2021/09/20 06:22:18;;;;;;;13.38;6.45;;;;;;;14.09;100.00;94792.91;5073851;28;20059;-73
2021/09/20 06:24:44;;;;;;;14.60;6.82;;;;;;;14.25;100.00;94802.41;5079696;28;20414;-73
2021/09/20 06:27:11;;;;;;;13.77;6.80;;;;;;;14.39;100.00;94810.59;5078788;28;20049;-73
2021/09/20 06:29:38;;;;;;;13.55;6.05;;;;;;;14.37;100.00;94814.50;5070796;28;20044;-73
2021/09/20 06:32:05;;;;;;;8.07;5.25;;;;;;;14.33;100.00;94801.94;5067239;28;20056;-74
2021/09/20 06:34:32;;;;;;;13.65;4.93;;;;;;;14.27;100.00;94789.84;5081686;28;20079;-73
2021/09/20 06:36:59;;;;;;;10.88;6.32;;;;;;;14.31;100.00;94790.94;5075666;28;20046;-74
2021/09/20 06:39:26;;;;;;;12.95;7.25;;;;;;;14.31;100.00;94785.69;5072448;28;20032;-73
2021/09/20 06:41:53;;;;;;;9.75;5.47;;;;;;;14.25;100.00;94791.94;5070221;28;20370;-74
2021/09/20 06:44:20;;;;;;;10.20;5.20;;;;;;;14.36;100.00;94792.00;5070724;28;20101;-73
2021/09/20 06:46:47;;;;;;;9.25;5.30;;;;;;;14.56;100.00;94818.28;5063734;28;20098;-72
2021/09/20 06:49:15;;;;;;;11.73;6.38;;;;;;;14.63;100.00;94831.97;5070299;28;20056;-74
2021/09/20 06:51:43;;;;;;;10.63;5.70;;;;;;;14.51;100.00;94826.09;5069775;28;20502;-74
2021/09/20 06:54:10;;;;;;;9.45;5.22;;;;;;;14.45;100.00;94816.66;5075318;28;20032;-75
2021/09/20 06:56:38;;;;;;;15.38;5.43;;;;;;;14.58;100.00;94826.69;5075320;28;20043;-75
2021/09/20 06:59:07;;;;;;;8.82;6.20;;;;;;;14.72;100.00;94833.03;5069946;28;20048;-75
2021/09/20 07:01:34;;;;;;;8.30;4.90;;;;;;;14.76;100.00;94833.31;5078900;28;20032;-75
2021/09/20 07:04:01;;;;;;;14.38;5.53;;;;;;;14.70;100.00;94829.91;5078600;28;20060;-74
2021/09/20 07:06:28;;;;;;;8.95;5.25;;;;;;;14.69;100.00;94815.22;5071447;28;20048;-78
2021/09/20 07:08:55;;;;;;;10.30;5.85;;;;;;;14.56;100.00;94813.03;5074299;28;20056;-76
2021/09/20 07:11:21;;;;;;;8.45;5.03;;;;;;;14.60;100.00;94808.88;5078041;28;20077;-76
2021/09/20 07:13:48;;;;;;;10.27;5.72;;;;;;;14.70;100.00;94811.53;5074056;28;20063;-76
2021/09/20 07:16:15;;;;;;;7.40;4.70;;;;;;;14.86;100.00;94811.59;5072194;28;20506;-76
2021/09/20 07:18:42;;;;;;;10.88;5.70;;;;;;;15.09;100.00;94821.63;5075310;27;20048;-76
2021/09/20 07:21:10;;;;;;;9.73;4.97;;;;;;;15.22;100.00;94819.56;5077379;28;20544;-76
2021/09/20 07:23:37;;;;;;;9.25;5.13;;;;;;;15.25;100.00;94813.78;5072441;28;20071;-76
2021/09/20 07:26:03;;;;;;;9.43;5.20;;;;;;;15.31;100.00;94818.00;5074256;28;20522;-76
2021/09/20 07:28:30;;;;;;;9.25;5.05;;;;;;;15.47;100.00;94816.97;5072752;28;20064;-77
2021/09/20 07:30:57;;;;;;;11.80;6.63;;;;;;;15.46;100.00;94815.38;5073073;28;20052;-76
2021/09/20 07:33:24;;;;;;;9.38;5.45;;;;;;;15.58;100.00;94828.25;5075400;28;20056;-76
2021/09/20 07:35:51;;;;;;;12.73;6.10;;;;;;;15.61;100.00;94842.69;5079494;28;20047;-76
2021/09/20 07:38:18;;;;;;;11.90;6.63;;;;;;;15.76;100.00;94842.72;5068975;28;20052;-75
2021/09/20 07:40:44;;;;;;;10.77;6.13;;;;;;;15.84;100.00;94842.19;5073623;28;20044;-76
2021/09/20 07:43:11;;;;;;;12.85;6.72;;;;;;;16.00;100.00;94835.09;5068394;28;20604;-76
2021/09/20 07:45:38;;;;;;;9.07;5.68;;;;;;;16.31;100.00;94826.38;5073322;28;20044;-75
2021/09/20 07:48:05;;;;;;;11.57;5.95;;;;;;;16.55;100.00;94808.97;5080874;28;20067;-73
2021/09/20 07:50:32;;;;;;;11.25;5.93;;;;;;;16.77;100.00;94799.94;5078541;28;20048;-73
2021/09/20 07:52:59;;;;;;;14.55;6.55;;;;;;;16.91;100.00;94798.31;5077341;28;20056;-73
2021/09/20 07:55:26;;;;;;;11.00;5.72;;;;;;;17.11;100.00;94799.25;5070504;28;20445;-73
2021/09/20 07:57:56;;;;;;;13.18;6.50;;;;;;;17.36;100.00;94817.53;5076853;28;20047;-76
2021/09/20 08:00:32;;;;;;;9.80;6.45;;;;;;;17.34;100.00;94809.13;5077821;28;20040;-75
2021/09/20 08:02:59;;;;;;;12.30;6.13;;;;;;;17.28;100.00;94807.56;5072066;28;20111;-74
2021/09/20 08:05:26;;;;;;;8.77;5.43;;;;;;;17.34;99.78;94803.03;5077610;28;20041;-75
2021/09/20 08:07:53;;;;;;;9.55;5.55;;;;;;;17.34;99.41;94788.06;5073254;28;20048;-75
2021/09/20 08:10:19;;;;;;;11.73;5.63;;;;;;;17.52;98.02;94794.50;5080644;28;20040;-74
2021/09/20 08:12:46;;;;;;;10.52;6.57;;;;;;;17.61;97.21;94775.47;5072763;28;20041;-74
2021/09/20 08:15:13;;;;;;;8.18;5.70;;;;;;;17.84;96.08;94789.75;5079204;28;20401;-74
2021/09/20 08:17:40;;;;;;;8.73;5.60;;;;;;;17.85;96.41;94786.06;5075978;28;20036;-72
2021/09/20 08:20:09;;;;;;;13.60;5.22;;;;;;;17.94;95.03;94789.72;5078165;28;20050;-75
2021/09/20 08:22:36;;;;;;;10.48;6.38;;;;;;;17.71;97.05;94764.84;5078493;28;20047;-75
2021/09/20 08:25:05;;;;;;;10.52;6.70;;;;;;;17.52;100.00;94764.75;5078289;28;20039;-75
2021/09/20 08:27:31;;;;;;;12.63;6.63;;;;;;;17.43;100.00;94763.75;5081688;28;20078;-75
2021/09/20 08:29:58;;;;;;;11.18;5.57;;;;;;;17.63;98.78;94758.34;5079725;28;20514;-75
2021/09/20 08:32:25;;;;;;;8.55;5.38;;;;;;;17.99;96.89;94776.50;5076933;28;20044;-74
2021/09/20 08:34:52;;;;;;;12.73;6.53;;;;;;;17.91;96.22;94769.94;5072489;28;20048;-74
2021/09/20 08:37:19;;;;;;;10.02;6.28;;;;;;;18.15;96.62;94780.53;5083998;28;20036;-75
2021/09/20 08:39:48;;;;;;;10.73;6.72;;;;;;;18.29;96.20;94779.84;5082985;28;20052;-74
2021/09/20 08:42:16;;;;;;;15.02;6.00;;;;;;;18.34;94.81;94761.34;5081104;28;20494;-75
2021/09/20 08:44:42;;;;;;;10.82;5.95;;;;;;;18.47;93.93;94760.66;5082584;28;20182;-72
2021/09/20 08:47:13;;;;;;;9.40;6.03;;;;;;;18.61;94.90;94770.53;5081214;28;20044;-76
2021/09/20 08:49:40;;;;;;;10.80;6.25;;;;;;;18.39;96.29;94763.94;5078174;28;20041;-76
2021/09/20 08:52:08;;;;;;;11.05;5.30;;;;;;;18.01;97.12;94761.19;5077525;28;20044;-77
2021/09/20 08:54:35;;;;;;;9.98;6.18;;;;;;;17.74;98.99;94738.75;5077565;28;20420;-76
2021/09/20 08:57:03;;;;;;;10.57;5.78;;;;;;;17.85;100.00;94751.84;5077966;28;20055;-76
2021/09/20 08:59:30;;;;;;;9.18;6.28;;;;;;;17.93;99.91;94745.97;5082713;28;20451;-75
2021/09/20 09:01:57;;;;;;;8.07;5.50;;;;;;;17.73;100.00;94742.44;5081299;28;20489;-75
2021/09/20 09:04:27;;;;;;;9.63;5.97;;;;;;;17.86;100.00;94745.50;5078109;28;20111;-75
2021/09/20 09:06:56;;;;;;;8.13;5.50;;;;;;;18.30;99.70;94747.16;5081765;28;20036;-75
2021/09/20 09:09:34;;;;;;;10.13;5.60;;;;;;;18.88;98.87;94744.34;5076764;28;20657;-75
2021/09/20 09:12:23;;;;;;;9.73;5.32;;;;;;;19.14;93.00;94730.81;5079505;28;20497;-74
2021/09/20 09:14:53;;;;;;;10.43;5.82;;;;;;;19.42;92.18;94720.34;5084179;28;20051;-74
2021/09/20 09:17:22;;;;;;;7.95;5.97;;;;;;;19.94;90.84;94728.97;5082482;28;20071;-75
2021/09/20 09:20:01;;;;;;;8.52;5.43;;;;;;;20.51;87.66;94722.59;5078538;28;20505;-75
2021/09/20 09:22:42;;;;;;;8.63;5.90;;;;;;;21.09;85.95;94721.91;5075538;28;20032;-74
2021/09/20 09:25:13;;;;;;;8.75;5.43;;;;;;;21.57;84.41;94716.03;5074566;28;20041;-75
2021/09/20 09:27:41;;;;;;;10.68;4.90;;;;;;;22.17;80.58;94706.03;5080875;28;20048;-75
2021/09/20 09:30:15;;;;;;;6.20;4.18;;;;;;;22.63;77.09;94717.22;5080075;28;20044;-74
2021/09/20 09:32:44;;;;;;;6.85;4.80;;;;;;;22.40;78.74;94703.28;5079074;28;20090;-74
2021/09/20 09:35:12;;;;;;;13.00;4.68;;;;;;;22.14;77.49;94706.63;5079171;28;20045;-74
2021/09/20 09:37:42;;;;;;;6.38;4.20;;;;;;;22.69;76.85;94706.16;5074802;28;20040;-75
2021/09/20 09:40:22;;;;;;;4.65;3.63;;;;;;;23.25;75.74;94710.91;5078608;28;20048;-74
2021/09/20 09:42:51;;;;;;;5.40;3.40;;;;;;;23.34;72.30;94698.38;5073357;28;20037;-75
2021/09/20 09:45:26;;;;;;;7.05;4.15;;;;;;;23.83;70.62;94714.09;5084586;28;20105;-76
2021/09/20 09:48:15;;;;;;;4.57;3.17;;;;;;;24.29;69.51;94714.38;5073417;28;20044;-74
2021/09/20 09:51:03;;;;;;;8.93;3.63;;;;;;;24.93;66.07;94705.41;5078735;28;20052;-74
2021/09/20 09:53:34;;;;;;;4.45;3.15;;;;;;;25.53;63.02;94712.13;5072607;28;20406;-74
2021/09/20 09:56:07;;;;;;;5.40;3.67;;;;;;;26.01;60.05;94722.47;5070921;28;20563;-74
2021/09/20 09:58:34;;;;;;;4.97;3.15;;;;;;;26.46;58.17;94709.03;5073289;28;20041;-74
2021/09/20 10:01:15;;;;;;;4.88;3.30;;;;;;;26.38;58.15;94717.94;5074310;28;20541;-74
2021/09/20 10:04:01;;;;;;;6.80;3.40;;;;;;;26.08;59.38;94731.50;5075760;28;20144;-74
2021/09/20 10:06:28;;;;;;;4.68;3.97;;;;;;;26.50;60.21;94720.59;5074874;28;20076;-74
2021/09/20 10:08:55;;;;;;;5.13;3.30;;;;;;;26.64;59.28;94714.16;5068364;28;20415;-74
2021/09/20 10:11:22;;;;;;;4.82;3.70;;;;;;;26.59;58.06;94701.00;5075182;28;20048;-74
2021/09/20 10:13:48;;;;;;;4.65;3.55;;;;;;;26.93;55.90;94720.34;5079721;28;20036;-74
2021/09/20 10:16:15;;;;;;;7.03;3.65;;;;;;;27.42;53.55;94715.66;5068468;28;20044;-74
2021/09/20 10:18:42;;;;;;;5.32;2.72;;;;;;;27.79;53.57;94706.66;5064860;28;20171;-75
2021/09/20 10:21:10;;;;;;;5.88;3.15;;;;;;;28.19;52.57;94697.72;5069854;28;20098;-75
2021/09/20 10:23:39;;;;;;;5.47;3.50;;;;;;;28.66;53.01;94699.56;5065436;28;20036;-75
2021/09/20 10:26:06;;;;;;;5.07;3.28;;;;;;;28.56;50.25;94684.06;5074487;28;20048;-75
2021/09/20 10:28:33;;;;;;;8.13;4.57;;;;;;;28.47;51.97;94696.81;5076597;28;20052;-75
2021/09/20 10:31:01;;;;;;;4.93;3.28;;;;;;;28.48;51.96;94693.00;5082474;28;20117;-75
2021/09/20 10:33:28;;;;;;;4.63;2.85;;;;;;;28.66;49.13;94699.56;5069635;28;20047;-74
2021/09/20 10:35:55;;;;;;;22.20;3.63;;;;;;;29.33;46.26;94691.41;5075244;28;20044;-74
2021/09/20 10:38:21;;;;;;;3.38;2.63;;;;;;;29.78;46.88;94691.81;5072898;28;20064;-74
2021/09/20 10:41:07;;;;;;;3.35;2.47;;;;;;;30.10;44.04;94688.91;5061843;28;20094;-75
2021/09/20 10:43:36;;;;;;;3.10;2.45;;;;;;;29.67;43.58;94685.47;5068112;28;20055;-74
2021/09/20 10:46:07;;;;;;;3.22;2.80;;;;;;;28.42;44.80;94679.88;5065606;28;20049;-74
2021/09/20 10:48:55;;;;;;;5.00;2.22;;;;;;;29.60;42.89;94685.34;5064603;28;20612;-74
2021/09/20 10:51:35;;;;;;;5.22;2.42;;;;;;;30.53;40.41;94686.91;5065676;28;20048;-74
2021/09/20 10:54:17;;;;;;;3.58;2.70;;;;;;;30.92;39.85;94681.31;5064969;28;20533;-73
2021/09/20 10:56:46;;;;;;;4.97;2.78;;;;;;;31.05;38.62;94669.16;5067085;28;20391;-73
2021/09/20 10:59:15;;;;;;;5.38;2.13;;;;;;;30.88;40.73;94669.69;5080632;28;20102;-73
2021/09/20 11:01:55;;;;;;;5.68;2.55;;;;;;;31.31;36.10;94670.22;5064209;28;21053;-73
2021/09/20 11:04:31;;;;;;;7.20;2.58;;;;;;;31.44;36.97;94674.22;5063891;28;20055;-73
2021/09/20 11:07:15;;;;;;;2.65;2.20;;;;;;;31.98;35.62;94673.97;5073659;28;20048;-74
2021/09/20 11:09:44;;;;;;;9.13;2.90;;;;;;;32.05;34.27;94673.28;5065464;28;20048;-74
2021/09/20 11:12:21;;;;;;;6.95;2.10;;;;;;;32.32;34.34;94663.09;5071741;28;20047;-73
2021/09/20 11:14:51;;;;;;;4.47;2.13;;;;;;;32.65;36.61;94661.41;5063648;28;20051;-73
2021/09/20 11:17:41;;;;;;;7.53;2.25;;;;;;;32.51;36.23;94651.28;5075289;28;20049;-74
2021/09/20 11:20:19;;;;;;;7.55;3.50;;;;;;;32.72;34.88;94653.34;5068883;28;20040;-74
2021/09/20 11:22:46;;;;;;;6.35;3.30;;;;;;;32.26;35.95;94651.13;5084782;28;20090;-73
2021/09/20 11:25:16;;;;;;;6.65;3.20;;;;;;;32.76;36.31;94646.06;5081827;28;20063;-72
2021/09/20 11:27:46;;;;;;;5.28;2.67;;;;;;;33.06;34.93;94642.31;5065293;28;20050;-73
2021/09/20 11:30:16;;;;;;;5.10;2.28;;;;;;;33.21;37.24;94618.88;5064057;28;20124;-73
2021/09/20 11:32:48;;;;;;;5.05;2.40;;;;;;;32.89;34.76;94639.16;5064444;28;20047;-73